Time;durP1;ratioP1;P1;durP2;ratioP2;P2;SDS_P1;SDS_P2;PMS_P1;PMS_P2;Temp;Humidity;BMP_temperature;BMP_pressure;BME280_temperature;BME280_humidity;BME280_pressure;Samples;Min_cycle;Max_cycle;Signal;HPM_P1;HPM_P2
2023/11/18 00:01:49;;;;;;;;;;;19.20;59.40;;;;;;1489769;79;1122;-59
2023/11/18 00:03:50;;;;;;;;;;;19.20;59.40;;;;;;1480349;79;727;-61
2023/11/18 00:05:52;;;;;;;;;;;19.20;59.40;;;;;;1486575;79;642;-60
2023/11/18 00:07:55;;;;;;;;;;;19.20;59.40;;;;;;1481961;79;787;-59
2023/11/18 00:09:57;;;;;;;;;;;19.10;59.40;;;;;;1486005;79;1346;-55
2023/11/18 00:11:58;;;;;;;;;;;19.10;59.30;;;;;;1480171;79;1114;-59
2023/11/18 00:14:00;;;;;;;;;;;19.20;59.40;;;;;;1484061;79;727;-57
2023/11/18 00:16:02;;;;;;;;;;;19.20;59.30;;;;;;1478425;79;1985;-56
2023/11/18 00:18:04;;;;;;;;;;;19.20;59.40;;;;;;1483511;79;694;-57
2023/11/18 00:20:09;;;;;;;;;;;19.10;59.30;;;;;;1490185;79;724;-61
2023/11/18 00:22:11;;;;;;;;;;;19.20;59.30;;;;;;1487875;79;1514;-55
2023/11/18 00:24:14;;;;;;;;;;;19.20;59.30;;;;;;1483101;79;1531;-59
2023/11/18 00:26:16;;;;;;;;;;;19.10;59.30;;;;;;1489709;78;794;-59
2023/11/18 00:28:19;;;;;;;;;;;19.10;59.20;;;;;;1490861;79;715;-59
2023/11/18 00:30:21;;;;;;;;;;;19.10;59.30;;;;;;1475592;79;793;-55
2023/11/18 00:32:23;;;;;;;;;;;19.20;59.20;;;;;;1491277;79;1115;-60
2023/11/18 00:34:25;;;;;;;;;;;19.20;59.20;;;;;;1483288;79;1931;-58
2023/11/18 00:36:28;;;;;;;;;;;19.20;59.20;;;;;;1478081;79;723;-60
2023/11/18 00:38:30;;;;;;;;;;;19.10;59.20;;;;;;1484986;79;1239;-60
2023/11/18 00:40:32;;;;;;;;;;;19.20;59.20;;;;;;1492007;79;634;-58
2023/11/18 00:42:34;;;;;;;;;;;19.10;59.20;;;;;;1480843;79;1172;-58
2023/11/18 00:44:36;;;;;;;;;;;19.20;59.20;;;;;;1477743;79;688;-57
2023/11/18 00:46:38;;;;;;;;;;;19.20;59.20;;;;;;1480828;79;677;-59
2023/11/18 00:48:40;;;;;;;;;;;19.20;59.20;;;;;;1475916;79;804;-58
2023/11/18 00:50:42;;;;;;;;;;;19.20;59.20;;;;;;1488706;79;708;-57
2023/11/18 00:52:43;;;;;;;;;;;19.10;59.10;;;;;;1481171;79;1508;-57
2023/11/18 00:54:45;;;;;;;;;;;19.20;59.10;;;;;;1490667;79;1936;-56
2023/11/18 00:56:47;;;;;;;;;;;19.20;59.10;;;;;;1482453;79;811;-56
2023/11/18 00:58:49;;;;;;;;;;;19.20;59.10;;;;;;1476610;79;685;-59
2023/11/18 01:00:52;;;;;;;;;;;19.20;59.10;;;;;;1488385;79;652;-58
2023/11/18 01:02:58;;;;;;;;;;;19.20;59.10;;;;;;1484884;79;1158;-57
2023/11/18 01:04:57;;;;;;;;;;;19.20;59.10;;;;;;1482138;79;1387;-60
2023/11/18 01:06:59;;;;;;;;;;;19.20;59.10;;;;;;1485088;79;1444;-59
2023/11/18 01:09:01;;;;;;;;;;;19.20;59.00;;;;;;1486696;79;720;-59
2023/11/18 01:11:04;;;;;;;;;;;19.20;59.00;;;;;;1483715;79;761;-59
2023/11/18 01:13:06;;;;;;;;;;;19.10;59.10;;;;;;1483942;79;1099;-57
2023/11/18 01:15:10;;;;;;;;;;;19.10;59.00;;;;;;1483933;79;1925;-59
2023/11/18 01:17:13;;;;;;;;;;;19.20;59.00;;;;;;1478751;79;1706;-59
2023/11/18 01:19:15;;;;;;;;;;;19.10;59.00;;;;;;1481337;79;664;-57
2023/11/18 01:21:17;;;;;;;;;;;19.10;59.00;;;;;;1486107;79;1350;-56
2023/11/18 01:23:19;;;;;;;;;;;19.10;59.00;;;;;;1486105;79;1139;-58
2023/11/18 01:25:21;;;;;;;;;;;19.10;59.00;;;;;;1487448;79;812;-60
2023/11/18 01:27:23;;;;;;;;;;;19.20;59.00;;;;;;1489324;77;923;-56
2023/11/18 01:29:25;;;;;;;;;;;19.20;59.00;;;;;;1492007;79;734;-60
2023/11/18 01:31:26;;;;;;;;;;;19.20;59.00;;;;;;1493050;79;691;-57
2023/11/18 01:33:28;;;;;;;;;;;19.20;58.90;;;;;;1485542;79;1074;-58
2023/11/18 01:35:31;;;;;;;;;;;19.20;59.00;;;;;;1485923;79;1940;-57
2023/11/18 01:37:33;;;;;;;;;;;19.20;58.90;;;;;;1480881;79;859;-56
2023/11/18 01:39:35;;;;;;;;;;;19.20;58.90;;;;;;1489131;79;821;-56
2023/11/18 01:41:37;;;;;;;;;;;19.10;58.90;;;;;;1482712;79;739;-59
2023/11/18 01:43:39;;;;;;;;;;;19.20;58.90;;;;;;1478495;79;1036;-59
2023/11/18 01:45:41;;;;;;;;;;;19.20;58.90;;;;;;1486291;79;596;-58
2023/11/18 01:47:43;;;;;;;;;;;19.20;58.90;;;;;;1473341;79;780;-59
2023/11/18 01:49:45;;;;;;;;;;;19.10;58.80;;;;;;1476071;79;1450;-59
2023/11/18 01:51:47;;;;;;;;;;;19.20;58.90;;;;;;1476403;79;1099;-57
2023/11/18 01:53:50;;;;;;;;;;;19.20;58.90;;;;;;1480137;79;721;-59
2023/11/18 01:55:52;;;;;;;;;;;19.10;58.90;;;;;;1482506;79;1924;-61
2023/11/18 01:57:53;;;;;;;;;;;19.20;58.50;;;;;;1471949;79;801;-58
2023/11/18 01:59:56;;;;;;;;;;;19.20;58.90;;;;;;1480085;79;775;-58
2023/11/18 02:01:59;;;;;;;;;;;19.20;59.10;;;;;;1461300;80;1167;-57
2023/11/18 02:04:01;;;;;;;;;;;19.30;59.10;;;;;;1481460;79;1603;-62
2023/11/18 02:06:04;;;;;;;;;;;19.30;59.00;;;;;;1492130;79;760;-58
2023/11/18 02:08:09;;;;;;;;;;;19.30;59.00;;;;;;1478288;79;678;-56
2023/11/18 02:10:11;;;;;;;;;;;19.30;59.00;;;;;;1489507;79;671;-59
2023/11/18 02:12:16;;;;;;;;;;;19.30;59.10;;;;;;1477328;79;1118;-59
2023/11/18 02:14:17;;;;;;;;;;;19.40;59.30;;;;;;1477913;79;786;-61
2023/11/18 02:16:19;;;;;;;;;;;19.30;59.30;;;;;;1474975;79;1939;-61
2023/11/18 02:18:21;;;;;;;;;;;19.40;59.40;;;;;;1486607;79;690;-60
2023/11/18 02:20:24;;;;;;;;;;;19.30;59.50;;;;;;1479593;79;726;-60
2023/11/18 02:22:26;;;;;;;;;;;19.30;59.60;;;;;;1477048;79;1223;-59
2023/11/18 02:24:30;;;;;;;;;;;19.30;59.70;;;;;;1483314;79;608;-59
2023/11/18 02:26:32;;;;;;;;;;;19.30;59.70;;;;;;1479508;79;838;-60
2023/11/18 02:28:33;;;;;;;;;;;19.40;59.80;;;;;;1477699;79;747;-61
2023/11/18 02:30:35;;;;;;;;;;;19.70;60.00;;;;;;1482375;79;1504;-60
2023/11/18 02:32:38;;;;;;;;;;;19.30;59.80;;;;;;1477813;79;1112;-59
2023/11/18 02:34:42;;;;;;;;;;;19.30;59.90;;;;;;1481997;79;676;-61
2023/11/18 02:36:45;;;;;;;;;;;19.40;59.80;;;;;;1479116;79;1922;-60
2023/11/18 02:38:49;;;;;;;;;;;19.30;59.90;;;;;;1476889;79;751;-60
2023/11/18 02:40:53;;;;;;;;;;;19.30;59.90;;;;;;1482816;79;670;-60
2023/11/18 02:42:55;;;;;;;;;;;19.30;59.90;;;;;;1476099;79;1161;-59
2023/11/18 02:44:59;;;;;;;;;;;19.30;60.00;;;;;;1480573;79;1586;-60
2023/11/18 02:47:00;;;;;;;;;;;19.40;60.00;;;;;;1483073;79;1718;-59
2023/11/18 02:49:02;;;;;;;;;;;19.40;60.00;;;;;;1480773;79;629;-60
2023/11/18 02:51:04;;;;;;;;;;;19.30;60.00;;;;;;1473132;79;670;-61
2023/11/18 02:53:07;;;;;;;;;;;19.40;60.00;;;;;;1478546;79;1094;-61
2023/11/18 02:55:09;;;;;;;;;;;19.40;60.00;;;;;;1478180;79;1919;-60
2023/11/18 02:57:13;;;;;;;;;;;19.40;60.00;;;;;;1480724;79;727;-59
2023/11/18 02:59:15;;;;;;;;;;;19.40;60.10;;;;;;1481857;79;1660;-60
2023/11/18 03:01:16;;;;;;;;;;;19.40;60.20;;;;;;1483614;79;753;-60
2023/11/18 03:03:20;;;;;;;;;;;19.40;60.10;;;;;;1487471;79;1190;-61
2023/11/18 03:05:22;;;;;;;;;;;19.40;60.20;;;;;;1491431;79;760;-61
2023/11/18 03:07:24;;;;;;;;;;;19.40;60.20;;;;;;1481884;79;704;-58
2023/11/18 03:09:27;;;;;;;;;;;19.50;60.30;;;;;;1481954;79;721;-61
2023/11/18 03:11:33;;;;;;;;;;;19.40;60.10;;;;;;1476862;79;659;-57
2023/11/18 03:13:35;;;;;;;;;;;19.40;60.10;;;;;;1477837;79;1489;-57
2023/11/18 03:15:37;;;;;;;;;;;19.40;60.20;;;;;;1489965;79;1916;-59
2023/11/18 03:17:39;;;;;;;;;;;19.40;60.20;;;;;;1486416;79;684;-59
2023/11/18 03:19:41;;;;;;;;;;;19.40;60.10;;;;;;1482482;79;813;-59
2023/11/18 03:21:43;;;;;;;;;;;19.50;60.30;;;;;;1487665;79;770;-58
2023/11/18 03:23:45;;;;;;;;;;;19.40;60.10;;;;;;1484983;79;1162;-59
2023/11/18 03:25:47;;;;;;;;;;;19.50;60.20;;;;;;1483809;79;706;-59
2023/11/18 03:27:49;;;;;;;;;;;19.50;60.20;;;;;;1480280;79;1333;-61
2023/11/18 03:29:50;;;;;;;;;;;19.50;60.20;;;;;;1478940;79;700;-62
2023/11/18 03:31:52;;;;;;;;;;;19.50;60.20;;;;;;1478940;79;1138;-56
2023/11/18 03:33:54;;;;;;;;;;;19.50;60.20;;;;;;1478986;79;707;-60
2023/11/18 03:35:56;;;;;;;;;;;19.50;60.10;;;;;;1475720;79;1946;-58
2023/11/18 03:37:58;;;;;;;;;;;19.50;60.10;;;;;;1485442;79;738;-57
2023/11/18 03:40:00;;;;;;;;;;;19.50;60.10;;;;;;1476322;79;958;-58
2023/11/18 03:42:02;;;;;;;;;;;19.50;60.10;;;;;;1476262;79;1232;-59
2023/11/18 03:44:04;;;;;;;;;;;19.50;60.10;;;;;;1478886;79;748;-57
2023/11/18 03:46:07;;;;;;;;;;;19.50;60.10;;;;;;1484632;79;730;-61
2023/11/18 03:48:09;;;;;;;;;;;19.60;60.10;;;;;;1485918;79;729;-61
2023/11/18 03:50:13;;;;;;;;;;;19.60;60.00;;;;;;1479069;79;752;-59
2023/11/18 03:52:15;;;;;;;;;;;19.60;60.00;;;;;;1480007;79;1153;-61
2023/11/18 03:54:17;;;;;;;;;;;19.60;60.00;;;;;;1479853;79;705;-60
2023/11/18 03:56:19;;;;;;;;;;;19.60;60.00;;;;;;1482106;79;1941;-61
2023/11/18 03:58:21;;;;;;;;;;;19.60;60.00;;;;;;1483794;79;773;-59
2023/11/18 04:00:29;;;;;;;;;;;19.60;60.00;;;;;;1491589;79;649;-57
2023/11/18 04:02:26;;;;;;;;;;;19.70;60.00;;;;;;1488862;79;1453;-59
2023/11/18 04:04:29;;;;;;;;;;;19.60;59.90;;;;;;1479520;79;742;-56
2023/11/18 04:06:31;;;;;;;;;;;19.60;59.90;;;;;;1487535;79;701;-59
2023/11/18 04:08:34;;;;;;;;;;;19.60;59.90;;;;;;1475842;79;866;-55
2023/11/18 04:10:37;;;;;;;;;;;19.60;59.90;;;;;;1476076;79;1494;-60
2023/11/18 04:12:38;;;;;;;;;;;19.70;60.00;;;;;;1480911;79;1147;-59
2023/11/18 04:14:40;;;;;;;;;;;19.70;60.00;;;;;;1472831;79;685;-60
2023/11/18 04:16:42;;;;;;;;;;;19.70;60.10;;;;;;1477720;79;1932;-60
2023/11/18 04:18:45;;;;;;;;;;;19.70;60.10;;;;;;1475799;79;790;-59
2023/11/18 04:20:47;;;;;;;;;;;19.60;60.00;;;;;;1477813;79;724;-59
2023/11/18 04:22:49;;;;;;;;;;;19.70;60.10;;;;;;1481911;79;1289;-60
2023/11/18 04:24:51;;;;;;;;;;;19.60;60.10;;;;;;1479485;79;684;-58
2023/11/18 04:26:55;;;;;;;;;;;19.70;60.10;;;;;;1486837;79;734;-57
2023/11/18 04:28:57;;;;;;;;;;;19.60;60.10;;;;;;1482315;79;743;-59
2023/11/18 04:30:59;;;;;;;;;;;19.70;60.20;;;;;;1478585;79;841;-58
2023/11/18 04:33:01;;;;;;;;;;;19.70;60.20;;;;;;1471027;79;1155;-57
2023/11/18 04:35:08;;;;;;;;;;;19.60;60.10;;;;;;1481213;79;744;-59
2023/11/18 04:37:06;;;;;;;;;;;19.60;60.20;;;;;;1482073;79;1938;-58
2023/11/18 04:39:11;;;;;;;;;;;19.70;60.30;;;;;;1483164;79;827;-62
2023/11/18 04:41:12;;;;;;;;;;;19.70;60.40;;;;;;1477422;79;1680;-62
2023/11/18 04:43:13;;;;;;;;;;;19.70;60.40;;;;;;1482659;79;1096;-62
2023/11/18 04:45:15;;;;;;;;;;;19.70;60.50;;;;;;1483348;79;714;-59
2023/11/18 04:47:21;;;;;;;;;;;19.70;60.50;;;;;;1476386;79;721;-58
2023/11/18 04:49:21;;;;;;;;;;;19.70;60.50;;;;;;1488821;79;1209;-61
2023/11/18 04:51:23;;;;;;;;;;;19.70;60.70;;;;;;1480790;79;1580;-56
2023/11/18 04:53:25;;;;;;;;;;;19.70;60.80;;;;;;1483400;79;1156;-55
2023/11/18 04:55:27;;;;;;;;;;;19.20;60.60;;;;;;1478862;79;749;-57
2023/11/18 04:57:29;;;;;;;;;;;19.70;60.90;;;;;;1478177;79;1943;-59
2023/11/18 04:59:31;;;;;;;;;;;19.60;61.00;;;;;;1487315;78;919;-58
2023/11/18 05:01:33;;;;;;;;;;;19.70;61.10;;;;;;1482969;79;866;-58
2023/11/18 05:03:36;;;;;;;;;;;19.70;61.20;;;;;;1473669;79;1135;-59
2023/11/18 05:05:38;;;;;;;;;;;19.60;61.10;;;;;;1481952;79;1311;-57
2023/11/18 05:07:40;;;;;;;;;;;19.60;61.10;;;;;;1475325;79;831;-60
2023/11/18 05:09:42;;;;;;;;;;;19.70;61.30;;;;;;1482098;79;717;-59
2023/11/18 05:11:45;;;;;;;;;;;19.70;61.20;;;;;;1478236;79;964;-59
2023/11/18 05:13:46;;;;;;;;;;;19.70;61.30;;;;;;1480239;79;750;-58
2023/11/18 05:15:49;;;;;;;;;;;19.70;61.30;;;;;;1476642;79;722;-60
2023/11/18 05:17:52;;;;;;;;;;;19.70;61.50;;;;;;1476636;79;1937;-59
2023/11/18 05:19:54;;;;;;;;;;;19.70;61.40;;;;;;1480977;79;1552;-57
2023/11/18 05:21:56;;;;;;;;;;;19.70;61.50;;;;;;1480146;79;1106;-60
2023/11/18 05:23:58;;;;;;;;;;;19.70;61.60;;;;;;1493023;79;691;-58
2023/11/18 05:25:59;;;;;;;;;;;19.70;61.60;;;;;;1481415;79;667;-59
2023/11/18 05:28:01;;;;;;;;;;;19.70;61.60;;;;;;1481905;79;793;-58
2023/11/18 05:30:05;;;;;;;;;;;19.70;61.60;;;;;;1485304;79;766;-56
2023/11/18 05:32:07;;;;;;;;;;;19.70;61.70;;;;;;1485140;79;1174;-60
2023/11/18 05:34:09;;;;;;;;;;;19.70;61.70;;;;;;1488447;79;1559;-60
2023/11/18 05:36:11;;;;;;;;;;;19.70;61.70;;;;;;1473437;79;1952;-61
2023/11/18 05:38:16;;;;;;;;;;;19.70;61.70;;;;;;1481359;79;552;-61
2023/11/18 05:40:16;;;;;;;;;;;19.60;61.60;;;;;;1479946;79;1731;-60
2023/11/18 05:42:19;;;;;;;;;;;19.70;61.70;;;;;;1477852;79;1146;-61
2023/11/18 05:44:29;;;;;;;;;;;19.70;61.80;;;;;;1488802;79;721;-61
2023/11/18 05:46:25;;;;;;;;;;;19.70;61.80;;;;;;1479894;79;1657;-60
2023/11/18 05:48:27;;;;;;;;;;;19.60;61.70;;;;;;1485954;79;1294;-60
2023/11/18 05:50:29;;;;;;;;;;;19.60;61.60;;;;;;1487791;79;688;-61
2023/11/18 05:52:31;;;;;;;;;;;19.70;61.80;;;;;;1480908;79;1159;-60
2023/11/18 05:54:33;;;;;;;;;;;19.60;61.60;;;;;;1487491;79;848;-60
2023/11/18 05:56:35;;;;;;;;;;;19.70;61.80;;;;;;1483637;79;1941;-61
2023/11/18 05:58:38;;;;;;;;;;;19.60;61.70;;;;;;1484995;79;809;-60
2023/11/18 06:00:40;;;;;;;;;;;19.00;61.50;;;;;;1487412;79;759;-60
2023/11/18 06:02:43;;;;;;;;;;;19.60;61.80;;;;;;1485992;79;1613;-59
2023/11/18 06:04:45;;;;;;;;;;;19.70;61.90;;;;;;1485629;79;723;-60
2023/11/18 06:06:47;;;;;;;;;;;19.70;62.00;;;;;;1488769;79;768;-60
2023/11/18 06:08:49;;;;;;;;;;;19.70;62.00;;;;;;1478291;79;695;-58
2023/11/18 06:10:56;;;;;;;;;;;19.70;62.00;;;;;;1491712;79;739;-59
2023/11/18 06:12:58;;;;;;;;;;;19.70;61.90;;;;;;1481605;79;1644;-60
2023/11/18 06:14:58;;;;;;;;;;;19.60;62.00;;;;;;1483568;79;1534;-61
2023/11/18 06:17:00;;;;;;;;;;;19.70;62.20;;;;;;1483361;79;1953;-61
2023/11/18 06:19:05;;;;;;;;;;;19.70;62.10;;;;;;1487261;79;771;-61
2023/11/18 06:21:07;;;;;;;;;;;19.70;62.10;;;;;;1482929;79;1717;-58
2023/11/18 06:23:10;;;;;;;;;;;19.60;62.00;;;;;;1482529;79;1125;-60
2023/11/18 06:25:12;;;;;;;;;;;19.70;62.20;;;;;;1477285;79;759;-59
2023/11/18 06:27:15;;;;;;;;;;;19.60;62.10;;;;;;1478610;79;664;-61
2023/11/18 06:29:18;;;;;;;;;;;19.60;62.30;;;;;;1478921;79;730;-58
2023/11/18 06:31:20;;;;;;;;;;;19.70;62.30;;;;;;1478582;79;731;-60
2023/11/18 06:33:23;;;;;;;;;;;19.70;62.30;;;;;;1481969;79;1197;-60
2023/11/18 06:35:25;;;;;;;;;;;19.70;62.10;;;;;;1483747;79;721;-61
2023/11/18 06:37:28;;;;;;;;;;;19.70;62.40;;;;;;1480658;79;1947;-60
2023/11/18 06:39:30;;;;;;;;;;;19.60;62.30;;;;;;1482835;79;1692;-59
2023/11/18 06:41:38;;;;;;;;;;;19.60;62.40;;;;;;1479592;79;801;-62
2023/11/18 06:43:51;;;;;;;;;;;19.70;62.60;;;;;;1485950;79;1547;-61
2023/11/18 06:45:52;;;;;;;;;;;19.70;62.60;;;;;;1489635;79;1450;-60
2023/11/18 06:47:54;;;;;;;;;;;19.60;62.60;;;;;;1480018;79;719;-59
2023/11/18 06:49:56;;;;;;;;;;;19.70;62.60;;;;;;1476722;79;677;-59
2023/11/18 06:51:58;;;;;;;;;;;19.70;62.90;;;;;;1481665;79;1148;-60
2023/11/18 06:54:00;;;;;;;;;;;19.70;62.60;;;;;;1480989;79;688;-60
2023/11/18 06:56:02;;;;;;;;;;;19.70;62.60;;;;;;1485181;79;672;-60
2023/11/18 06:58:04;;;;;;;;;;;19.70;62.80;;;;;;1484016;79;1925;-61
2023/11/18 07:00:08;;;;;;;;;;;19.70;62.90;;;;;;1473996;79;744;-60
2023/11/18 07:02:10;;;;;;;;;;;19.70;62.90;;;;;;1479153;79;1126;-60
2023/11/18 07:04:14;;;;;;;;;;;19.70;62.90;;;;;;1476868;79;731;-59
2023/11/18 07:06:22;;;;;;;;;;;19.70;63.00;;;;;;1475026;79;768;-60
2023/11/18 07:08:22;;;;;;;;;;;19.80;62.90;;;;;;1477255;79;1580;-59
2023/11/18 07:10:25;;;;;;;;;;;19.80;63.10;;;;;;1477770;79;733;-61
2023/11/18 07:12:27;;;;;;;;;;;19.70;63.10;;;;;;1486459;79;1347;-59
2023/11/18 07:14:29;;;;;;;;;;;19.70;63.00;;;;;;1478558;79;744;-59
2023/11/18 07:16:31;;;;;;;;;;;19.70;63.10;;;;;;1481081;79;730;-59
2023/11/18 07:18:32;;;;;;;;;;;19.70;62.90;;;;;;1473529;79;1948;-60
2023/11/18 07:20:34;;;;;;;;;;;19.70;62.90;;;;;;1483595;79;727;-59
2023/11/18 07:22:36;;;;;;;;;;;19.70;62.80;;;;;;1482552;79;1209;-59
2023/11/18 07:24:38;;;;;;;;;;;19.70;62.80;;;;;;1483906;79;686;-59
2023/11/18 07:26:40;;;;;;;;;;;19.70;62.70;;;;;;1478610;79;1181;-59
2023/11/18 07:28:43;;;;;;;;;;;19.70;62.70;;;;;;1483707;79;774;-59
2023/11/18 07:30:47;;;;;;;;;;;19.70;62.60;;;;;;1488495;79;627;-62
2023/11/18 07:32:50;;;;;;;;;;;19.70;62.70;;;;;;1482263;79;1183;-60
2023/11/18 07:34:52;;;;;;;;;;;19.70;62.70;;;;;;1475682;79;601;-61
2023/11/18 07:36:55;;;;;;;;;;;19.70;62.70;;;;;;1486601;79;1926;-61
2023/11/18 07:38:58;;;;;;;;;;;19.80;62.70;;;;;;1483232;79;643;-60
2023/11/18 07:41:02;;;;;;;;;;;19.80;62.60;;;;;;1480697;79;1539;-58
2023/11/18 07:43:04;;;;;;;;;;;19.70;62.60;;;;;;1478172;79;2964;-59
2023/11/18 07:45:17;;;;;;;;;;;19.70;62.60;;;;;;1482915;79;705;-61
2023/11/18 07:47:11;;;;;;;;;;;19.80;62.60;;;;;;1478992;78;1585;-60
2023/11/18 07:49:13;;;;;;;;;;;19.70;62.50;;;;;;1484504;79;795;-60
2023/11/18 07:51:15;;;;;;;;;;;19.70;62.50;;;;;;1474106;79;930;-60
2023/11/18 07:53:17;;;;;;;;;;;19.70;62.40;;;;;;1485652;79;1113;-59
2023/11/18 07:55:19;;;;;;;;;;;19.80;62.30;;;;;;1480526;79;1611;-58
2023/11/18 07:57:21;;;;;;;;;;;19.70;62.30;;;;;;1481217;79;1936;-61
2023/11/18 07:59:23;;;;;;;;;;;19.70;62.30;;;;;;1475317;79;796;-60
2023/11/18 08:01:26;;;;;;;;;;;19.70;62.30;;;;;;1479137;77;709;-59
2023/11/18 08:03:28;;;;;;;;;;;19.70;62.20;;;;;;1485980;79;1142;-59
2023/11/18 08:05:31;;;;;;;;;;;19.70;62.30;;;;;;1482481;79;788;-60
2023/11/18 08:07:35;;;;;;;;;;;19.70;62.30;;;;;;1475029;79;814;-60
2023/11/18 08:09:38;;;;;;;;;;;19.70;62.30;;;;;;1476941;79;1508;-60
2023/11/18 08:11:43;;;;;;;;;;;19.80;62.30;;;;;;1483856;79;780;-59
2023/11/18 08:13:45;;;;;;;;;;;19.70;62.30;;;;;;1475646;79;836;-59
2023/11/18 08:15:47;;;;;;;;;;;19.70;62.20;;;;;;1482858;79;759;-57
2023/11/18 08:17:49;;;;;;;;;;;19.80;62.80;;;;;;1478322;79;1941;-61
2023/11/18 08:19:52;;;;;;;;;;;19.80;62.80;;;;;;1479985;79;841;-60
2023/11/18 08:21:54;;;;;;;;;;;19.80;62.90;;;;;;1474273;79;1565;-61
2023/11/18 08:23:55;;;;;;;;;;;19.80;63.00;;;;;;1475595;79;773;-61
2023/11/18 08:25:58;;;;;;;;;;;19.80;63.00;;;;;;1475741;79;721;-60
2023/11/18 08:28:07;;;;;;;;;;;19.70;63.10;;;;;;1480443;79;740;-59
2023/11/18 08:30:12;;;;;;;;;;;19.70;63.00;;;;;;1470528;79;726;-59
2023/11/18 08:32:14;;;;;;;;;;;19.80;62.80;;;;;;1480466;79;1184;-61
2023/11/18 08:34:18;;;;;;;;;;;19.70;62.80;;;;;;1478399;79;774;-61
2023/11/18 08:36:19;;;;;;;;;;;19.80;62.80;;;;;;1470822;79;1688;-59
2023/11/18 08:38:21;;;;;;;;;;;19.80;63.40;;;;;;1479552;79;1932;-59
2023/11/18 08:40:25;;;;;;;;;;;19.80;63.40;;;;;;1485247;79;788;-58
2023/11/18 08:42:27;;;;;;;;;;;19.80;63.20;;;;;;1478959;79;1118;-58
2023/11/18 08:44:29;;;;;;;;;;;19.90;62.90;;;;;;1489866;79;705;-59
2023/11/18 08:46:31;;;;;;;;;;;19.90;62.90;;;;;;1485831;79;745;-60
2023/11/18 08:48:38;;;;;;;;;;;20.00;62.60;;;;;;1479044;79;869;-58
2023/11/18 08:50:39;;;;;;;;;;;19.90;62.80;;;;;;1473168;79;1579;-58
2023/11/18 08:52:52;;;;;;;;;;;20.00;62.30;;;;;;1476489;79;1696;-60
2023/11/18 08:55:38;;;;;;;;;;;20.00;60.40;;;;;;1477548;79;1516;-60
2023/11/18 08:56:57;;;;;;;;;;;19.90;60.60;;;;;;1470945;79;1395;-60
2023/11/18 08:58:59;;;;;;;;;;;19.90;61.40;;;;;;1476953;79;1906;-59
2023/11/18 09:01:13;;;;;;;;;;;19.90;61.60;;;;;;1479698;79;708;-59
2023/11/18 09:03:17;;;;;;;;;;;19.90;61.70;;;;;;1481276;79;1617;-59
2023/11/18 09:05:13;;;;;;;;;;;19.90;61.70;;;;;;1479489;79;1639;-58
2023/11/18 09:07:15;;;;;;;;;;;19.90;61.60;;;;;;1478227;79;824;-58
2023/11/18 09:09:23;;;;;;;;;;;19.90;60.40;;;;;;1473611;79;805;-59
2023/11/18 09:11:22;;;;;;;;;;;20.00;61.30;;;;;;1476862;79;1469;-59
2023/11/18 09:13:31;;;;;;;;;;;20.00;61.10;;;;;;1480254;79;1115;-59
2023/11/18 09:15:36;;;;;;;;;;;19.90;61.00;;;;;;1487800;79;1221;-56
2023/11/18 09:17:36;;;;;;;;;;;20.00;60.90;;;;;;1469558;79;1940;-55
2023/11/18 09:19:39;;;;;;;;;;;20.00;61.00;;;;;;1488197;79;1206;-54
2023/11/18 09:21:40;;;;;;;;;;;20.00;60.90;;;;;;1487999;79;1343;-54
2023/11/18 09:23:43;;;;;;;;;;;19.90;60.80;;;;;;1474389;79;1325;-55
2023/11/18 09:25:50;;;;;;;;;;;20.00;60.80;;;;;;1473170;79;1386;-58
2023/11/18 09:27:50;;;;;;;;;;;20.00;60.80;;;;;;1473925;79;1616;-58
2023/11/18 09:29:51;;;;;;;;;;;20.00;60.70;;;;;;1481039;79;1257;-61
2023/11/18 09:31:54;;;;;;;;;;;20.00;60.70;;;;;;1484577;79;1261;-59
2023/11/18 09:33:57;;;;;;;;;;;19.90;60.60;;;;;;1474060;79;1440;-60
2023/11/18 09:35:59;;;;;;;;;;;20.00;60.50;;;;;;1479435;79;1416;-58
2023/11/18 09:38:05;;;;;;;;;;;20.00;60.40;;;;;;1465491;80;1954;-58
2023/11/18 09:40:11;;;;;;;;;;;20.00;60.30;;;;;;1481821;79;1630;-56
2023/11/18 09:42:09;;;;;;;;;;;20.00;60.30;;;;;;1477056;79;1728;-59
2023/11/18 09:44:12;;;;;;;;;;;20.00;60.20;;;;;;1476632;79;1371;-59
2023/11/18 09:46:23;;;;;;;;;;;20.00;60.10;;;;;;1489787;79;1395;-60
2023/11/18 09:48:25;;;;;;;;;;;20.00;60.00;;;;;;1476093;79;1235;-59
2023/11/18 09:50:27;;;;;;;;;;;20.00;60.00;;;;;;1477392;79;1257;-59
2023/11/18 09:52:31;;;;;;;;;;;20.00;60.00;;;;;;1477440;79;1319;-58
2023/11/18 09:54:55;;;;;;;;;;;20.00;59.90;;;;;;1476199;79;1759;-54
2023/11/18 09:57:08;;;;;;;;;;;19.90;60.00;;;;;;1470201;79;750;-58
2023/11/18 09:59:23;;;;;;;;;;;20.00;60.10;;;;;;1476986;79;1909;-55
2023/11/18 10:01:27;;;;;;;;;;;20.00;59.40;;;;;;1471266;79;1608;-56
2023/11/18 10:03:29;;;;;;;;;;;19.90;53.20;;;;;;1474902;79;1547;-59
2023/11/18 10:05:31;;;;;;;;;;;19.80;48.30;;;;;;1475045;79;715;-58
2023/11/18 10:07:35;;;;;;;;;;;19.80;46.00;;;;;;1465192;79;755;-57
2023/11/18 10:09:39;;;;;;;;;;;19.70;43.90;;;;;;1464389;79;1015;-58
2023/11/18 10:11:42;;;;;;;;;;;19.60;44.40;;;;;;1471123;79;763;-60
2023/11/18 10:13:44;;;;;;;;;;;19.50;43.30;;;;;;1472424;79;1169;-60
2023/11/18 10:15:47;;;;;;;;;;;19.50;42.50;;;;;;1474666;79;1419;-57
2023/11/18 10:17:59;;;;;;;;;;;19.40;43.50;;;;;;1475188;79;1917;-57
2023/11/18 10:20:12;;;;;;;;;;;19.40;42.80;;;;;;1476727;79;1503;-58
2023/11/18 10:22:07;;;;;;;;;;;19.40;41.50;;;;;;1471893;79;1658;-60
2023/11/18 10:24:14;;;;;;;;;;;19.30;40.80;;;;;;1444564;79;710;-54
2023/11/18 10:26:12;;;;;;;;;;;19.30;40.70;;;;;;1478696;79;1726;-60
2023/11/18 10:28:24;;;;;;;;;;;19.20;39.70;;;;;;1470902;79;767;-59
2023/11/18 10:30:26;;;;;;;;;;;19.20;40.00;;;;;;1477136;79;757;-58
2023/11/18 10:32:28;;;;;;;;;;;19.10;39.10;;;;;;1475976;79;1169;-57
2023/11/18 10:34:29;;;;;;;;;;;19.10;38.50;;;;;;1478958;79;627;-56
2023/11/18 10:36:33;;;;;;;;;;;19.00;38.40;;;;;;1475704;79;735;-57
2023/11/18 10:38:49;;;;;;;;;;;18.90;38.50;;;;;;1479808;79;1909;-54
2023/11/18 10:40:47;;;;;;;;;;;18.90;38.20;;;;;;1473110;79;1896;-58
2023/11/18 10:42:50;;;;;;;;;;;18.90;38.00;;;;;;1473182;79;1557;-56
2023/11/18 10:45:01;;;;;;;;;;;18.80;37.90;;;;;;1475128;79;734;-59
2023/11/18 10:46:59;;;;;;;;;;;18.70;37.90;;;;;;1477293;79;1529;-57
2023/11/18 10:49:01;;;;;;;;;;;18.70;37.90;;;;;;1473144;79;953;-55
2023/11/18 10:51:03;;;;;;;;;;;18.70;37.70;;;;;;1493892;79;729;-57
2023/11/18 10:53:11;;;;;;;;;;;18.60;37.60;;;;;;1479404;79;1144;-56
2023/11/18 10:55:19;;;;;;;;;;;18.50;37.50;;;;;;1482231;79;1726;-56
2023/11/18 10:57:13;;;;;;;;;;;18.60;37.50;;;;;;1481226;79;1630;-57
2023/11/18 10:59:18;;;;;;;;;;;18.60;37.40;;;;;;1465770;80;1915;-60
2023/11/18 11:01:22;;;;;;;;;;;18.50;37.40;;;;;;1483025;79;863;-60
2023/11/18 11:03:25;;;;;;;;;;;18.50;37.30;;;;;;1477283;79;1838;-57
2023/11/18 11:05:38;;;;;;;;;;;18.50;37.40;;;;;;1472827;79;777;-57
2023/11/18 11:07:33;;;;;;;;;;;18.40;37.40;;;;;;1464990;79;1591;-55
2023/11/18 11:09:37;;;;;;;;;;;18.40;37.30;;;;;;1477150;79;781;-56
2023/11/18 11:11:40;;;;;;;;;;;18.40;37.30;;;;;;1480027;79;1553;-56
2023/11/18 11:13:42;;;;;;;;;;;18.40;37.10;;;;;;1485541;79;1103;-59
2023/11/18 11:15:49;;;;;;;;;;;18.40;37.00;;;;;;1475056;79;848;-55
2023/11/18 11:18:02;;;;;;;;;;;18.30;36.90;;;;;;1471722;79;1754;-58
2023/11/18 11:20:11;;;;;;;;;;;18.30;36.80;;;;;;1474075;79;1915;-58
2023/11/18 11:22:15;;;;;;;;;;;18.40;36.80;;;;;;1466003;79;1750;-53
2023/11/18 11:24:12;;;;;;;;;;;18.30;39.10;;;;;;1473859;79;1588;-58
2023/11/18 11:26:22;;;;;;;;;;;18.40;41.40;;;;;;1469763;79;1527;-58
2023/11/18 11:28:25;;;;;;;;;;;18.60;43.00;;;;;;1480827;79;717;-56
2023/11/18 11:30:38;;;;;;;;;;;18.60;44.30;;;;;;1477371;79;811;-58
2023/11/18 11:32:38;;;;;;;;;;;18.80;45.00;;;;;;1474346;79;1620;-54
2023/11/18 11:34:42;;;;;;;;;;;18.90;45.30;;;;;;1481245;79;2014;-58
2023/11/18 11:36:46;;;;;;;;;;;19.00;45.60;;;;;;1490205;79;733;-59
2023/11/18 11:38:48;;;;;;;;;;;19.00;46.00;;;;;;1479288;79;1925;-60
2023/11/18 11:40:52;;;;;;;;;;;19.10;46.40;;;;;;1474493;79;772;-58
2023/11/18 11:43:04;;;;;;;;;;;19.10;46.60;;;;;;1478753;79;1591;-61
2023/11/18 11:44:58;;;;;;;;;;;19.20;46.50;;;;;;1472424;79;1692;-60
2023/11/18 11:47:00;;;;;;;;;;;19.20;47.00;;;;;;1489636;79;963;-57
2023/11/18 11:49:11;;;;;;;;;;;19.30;47.30;;;;;;1474270;79;689;-58
2023/11/18 11:51:14;;;;;;;;;;;19.40;47.40;;;;;;1484437;79;1643;-57
2023/11/18 11:53:16;;;;;;;;;;;19.40;47.80;;;;;;1455536;79;1647;-58
2023/11/18 11:55:32;;;;;;;;;;;19.40;47.70;;;;;;1482590;79;708;-60
2023/11/18 11:57:35;;;;;;;;;;;19.50;47.10;;;;;;1475815;79;2084;-57
2023/11/18 11:59:40;;;;;;;;;;;19.50;47.90;;;;;;1478435;79;1896;-60
2023/11/18 12:01:46;;;;;;;;;;;19.50;48.10;;;;;;1483768;79;1628;-61
2023/11/18 12:03:47;;;;;;;;;;;19.60;48.40;;;;;;1473433;79;1600;-61
2023/11/18 12:05:55;;;;;;;;;;;19.50;48.50;;;;;;1483030;79;686;-58
2023/11/18 12:07:57;;;;;;;;;;;19.50;48.40;;;;;;1485135;79;1601;-59
2023/11/18 12:09:59;;;;;;;;;;;19.50;48.40;;;;;;1485489;79;782;-59
2023/11/18 12:12:02;;;;;;;;;;;19.60;48.60;;;;;;1478908;79;1183;-57